This is the latest recevied weather packets stored in our database for station/object F8BJE-13. If no packets are shown the sender has not sent any weather packets the latest 10 day(s).
| Time | Temp. | Humidity | Pressure | Rain* | Wind** | Luminosity | Snow |
|---|---|---|---|---|---|---|---|
| 1787416203 | 24.44° C | 33% | 1022.2 hPa | 0 mm | - | - | - |
| 1787414403 | 24.44° C | 31% | 1022.2 hPa | 0 mm | - | - | - |
| 1787412603 | 25.56° C | 30% | 1022 hPa | 0 mm | - | - | - |
| 1787410803 | 27.22° C | 26% | 1022.3 hPa | 0 mm | - | - | - |
| 1787409003 | 26.67° C | 30% | 1022.2 hPa | 0 mm | - | - | - |
| 1787407203 | 26.11° C | 30% | 1022.4 hPa | 0 mm | - | - | - |
| 1787405403 | 27.78° C | 28% | 1022.6 hPa | 0 mm | - | - | - |
| 1787403603 | 26.11° C | 31% | 1022.6 hPa | 0 mm | - | - | - |
| 1787401803 | 26.67° C | 30% | 1022.6 hPa | 0 mm | - | - | - |
| 1787400003 | 26.11° C | 30% | 1022.8 hPa | 0 mm | - | - | - |
| 1787398203 | 25° C | 32% | 1022.9 hPa | 0 mm | - | - | - |
| 1787396403 | 26.67° C | 32% | 1022.9 hPa | 0 mm | - | - | - |
| 1787394603 | 25° C | 33% | 1023.2 hPa | 0 mm | - | - | - |
| 1787392803 | 26.67° C | 33% | 1023.2 hPa | 0 mm | - | - | - |
| 1787391003 | 23.89° C | 42% | 1023.2 hPa | 0 mm | - | - | - |
| 1787389203 | 22.78° C | 43% | 1022.9 hPa | 0 mm | - | - | - |
| 1787387403 | 22.22° C | 45% | 1022.7 hPa | 0 mm | - | - | - |
| 1787385603 | 23.33° C | 46% | 1022.5 hPa | 0 mm | - | - | - |
| 1787383803 | 21.11° C | 53% | 1022.4 hPa | 0 mm | - | - | - |
| 1787382003 | 21.11° C | 52% | 1022.1 hPa | 0 mm | - | - | - |
| 1787380203 | 20.56° C | 58% | 1021.9 hPa | 0 mm | - | - | - |
| 1787378403 | 13.89° C | 81% | 1021.8 hPa | 0 mm | - | - | - |
| 1787376603 | 11.67° C | 80% | 1021.4 hPa | 0 mm | - | - | - |
| 1787374803 | 11.67° C | 80% | 1020.8 hPa | 0 mm | - | - | - |
| 1787373003 | 11.67° C | 79% | 1020.5 hPa | 0 mm | - | - | - |
* Rain latest hour (hover to see other rain measurements)
** Current wind speed in m/s (hover to see current wind gust speed)